Time;durP1;ratioP1;P1;durP2;ratioP2;P2;SDS_P1;SDS_P2;PMS_P1;PMS_P2;Temp;Humidity;BMP_temperature;BMP_pressure;BME280_temperature;BME280_humidity;BME280_pressure;Samples;Min_cycle;Max_cycle;Signal;HPM_P1;HPM_P2
2022/01/15 00:00:35;;;;;;;14.35;6.78;;;6.90;99.90;;;;;;5099704;27;20584;-84
2022/01/15 00:03:01;;;;;;;8.98;5.93;;;6.80;99.90;;;;;;5099794;27;20051;-84
2022/01/15 00:05:27;;;;;;;11.65;7.15;;;6.80;99.90;;;;;;5116272;27;20143;-84
2022/01/15 00:07:52;;;;;;;8.82;6.30;;;6.80;99.90;;;;;;5132891;27;20043;-84
2022/01/15 00:10:21;;;;;;;9.32;5.72;;;6.80;99.90;;;;;;5134971;27;20046;-83
2022/01/15 00:12:46;;;;;;;10.27;6.03;;;6.80;99.90;;;;;;5137614;27;20207;-83
2022/01/15 00:15:18;;;;;;;11.43;7.45;;;6.80;99.90;;;;;;5102824;27;20122;-84
2022/01/15 00:17:48;;;;;;;12.70;8.15;;;6.70;99.90;;;;;;5137205;27;20054;-84
2022/01/15 00:20:16;;;;;;;12.07;7.18;;;6.80;99.90;;;;;;5120639;27;20047;-84
2022/01/15 00:22:43;;;;;;;13.15;7.47;;;6.80;99.90;;;;;;5155398;27;20134;-83
2022/01/15 00:25:09;;;;;;;10.57;5.97;;;6.80;99.90;;;;;;5154826;27;20147;-84
2022/01/15 00:27:35;;;;;;;8.90;6.00;;;6.80;99.90;;;;;;5137223;27;20498;-83
2022/01/15 00:30:03;;;;;;;13.30;7.82;;;7.40;99.90;;;;;;5136762;27;20085;-83
2022/01/15 00:32:28;;;;;;;11.65;6.28;;;6.80;99.90;;;;;;5119853;27;20087;-83
2022/01/15 00:34:54;;;;;;;14.52;6.53;;;6.80;99.90;;;;;;5102409;27;20051;-82
2022/01/15 00:37:20;;;;;;;8.23;5.53;;;6.70;99.90;;;;;;5136888;27;20365;-84
2022/01/15 00:39:45;;;;;;;10.48;6.45;;;6.80;99.90;;;;;;5136653;27;20400;-83
2022/01/15 00:42:11;;;;;;;10.10;6.60;;;6.80;99.90;;;;;;5136137;27;20471;-83
2022/01/15 00:44:39;;;;;;;10.98;6.43;;;6.80;99.90;;;;;;5102526;27;20084;-83
2022/01/15 00:47:05;;;;;;;12.30;6.50;;;6.80;99.90;;;;;;5136323;27;20047;-83
2022/01/15 00:49:31;;;;;;;10.93;7.15;;;6.80;99.90;;;;;;5119601;27;20073;-84
2022/01/15 00:51:56;;;;;;;13.15;7.10;;;6.80;99.90;;;;;;5118837;27;20051;-83
2022/01/15 00:54:22;;;;;;;15.02;7.07;;;6.80;99.90;;;;;;5136602;27;20470;-83
2022/01/15 00:56:47;;;;;;;10.23;5.75;;;6.70;99.90;;;;;;5136683;27;20394;-83
2022/01/15 00:59:14;;;;;;;10.73;6.03;;;6.70;99.90;;;;;;5136163;27;20039;-83
2022/01/15 01:01:39;;;;;;;11.32;6.72;;;6.80;99.90;;;;;;5136571;27;20125;-83
2022/01/15 01:04:05;;;;;;;10.38;6.85;;;6.70;99.90;;;;;;5135651;27;20152;-82
2022/01/15 01:06:31;;;;;;;11.65;6.30;;;6.70;99.90;;;;;;5136319;27;20080;-83
2022/01/15 01:08:56;;;;;;;9.52;5.82;;;6.70;99.90;;;;;;5135570;27;20131;-84
2022/01/15 01:11:32;;;;;;;14.70;7.40;;;6.70;99.90;;;;;;5136448;27;20046;-83
2022/01/15 01:24:55;;;;;;;12.18;6.50;;;6.70;99.90;;;;;;5135440;27;20050;-83
2022/01/15 01:27:40;;;;;;;11.90;6.53;;;7.00;99.90;;;;;;5135331;27;20406;-83
2022/01/15 01:30:16;;;;;;;12.68;6.35;;;6.60;99.90;;;;;;5121203;27;20112;-83
2022/01/15 01:32:48;;;;;;;13.32;6.70;;;6.60;99.90;;;;;;5135857;27;20039;-83
2022/01/15 01:35:32;;;;;;;14.60;6.88;;;6.90;99.90;;;;;;5119378;27;20097;-84
2022/01/15 01:38:07;;;;;;;12.82;6.88;;;6.70;99.90;;;;;;5121105;27;20066;-83
2022/01/15 01:40:39;;;;;;;11.52;6.90;;;6.70;99.90;;;;;;5135936;27;20050;-85
2022/01/15 01:43:26;;;;;;;12.30;7.28;;;6.70;99.90;;;;;;5134810;27;20482;-83
2022/01/15 01:46:11;;;;;;;10.98;6.82;;;6.70;99.90;;;;;;5135307;27;20061;-83
2022/01/15 01:48:37;;;;;;;14.65;7.53;;;6.70;99.90;;;;;;5121451;27;20543;-83
2022/01/15 01:51:03;;;;;;;10.70;7.00;;;6.70;99.90;;;;;;5117855;27;20043;-83
2022/01/15 01:53:28;;;;;;;16.80;7.35;;;6.70;99.90;;;;;;5101478;27;20486;-83
2022/01/15 01:55:54;;;;;;;13.15;7.43;;;6.70;99.90;;;;;;5135559;27;20049;-84
2022/01/15 01:58:20;;;;;;;11.18;7.28;;;6.70;99.90;;;;;;5134967;27;20047;-83
2022/01/15 02:00:45;;;;;;;12.13;7.13;;;6.80;99.90;;;;;;5135467;27;20069;-83
2022/01/15 02:03:11;;;;;;;18.35;8.35;;;6.70;99.90;;;;;;5134541;27;20432;-82
2022/01/15 02:05:39;;;;;;;17.27;8.15;;;7.00;99.90;;;;;;5135371;27;20073;-83
2022/01/15 02:08:05;;;;;;;16.35;7.97;;;6.70;99.90;;;;;;5100459;27;20433;-84
2022/01/15 02:10:30;;;;;;;17.73;8.60;;;6.70;99.90;;;;;;5135104;27;20111;-84
2022/01/15 02:12:56;;;;;;;20.55;8.90;;;6.70;99.90;;;;;;5101090;27;20053;-83
2022/01/15 02:15:22;;;;;;;16.67;8.02;;;6.70;99.90;;;;;;5134551;27;20046;-83
2022/01/15 02:17:48;;;;;;;17.08;7.93;;;6.70;99.90;;;;;;5101121;27;20545;-83
2022/01/15 02:20:59;;;;;;;12.85;6.68;;;7.00;99.90;;;;;;5100567;27;20053;-84
2022/01/15 02:25:55;;;;;;;15.38;6.45;;;6.60;99.90;;;;;;5120182;27;20460;-84
2022/01/15 02:28:26;;;;;;;9.57;4.20;;;6.60;99.90;;;;;;5134493;27;20057;-83
2022/01/15 02:30:57;;;;;;;11.85;5.85;;;6.60;99.90;;;;;;5118711;27;20055;-84
2022/01/15 02:33:23;;;;;;;10.88;4.85;;;6.60;99.90;;;;;;5133808;27;20038;-84
2022/01/15 02:35:48;;;;;;;10.35;4.55;;;6.60;99.90;;;;;;5134916;27;20083;-83
2022/01/15 02:38:14;;;;;;;12.05;4.35;;;6.60;99.90;;;;;;5117277;27;20595;-84
2022/01/15 02:40:40;;;;;;;6.40;3.30;;;6.60;99.90;;;;;;5134652;27;20053;-83
2022/01/15 02:43:12;;;;;;;6.90;3.83;;;6.60;99.90;;;;;;5117530;27;20050;-83
2022/01/15 02:45:41;;;;;;;6.70;4.10;;;6.50;99.90;;;;;;5117527;27;20503;-83
2022/01/15 02:48:14;;;;;;;9.80;4.60;;;6.60;99.90;;;;;;5134602;27;20090;-83
2022/01/15 02:50:40;;;;;;;10.15;4.70;;;6.60;99.90;;;;;;5134678;27;20058;-84
2022/01/15 02:53:06;;;;;;;9.52;4.00;;;6.50;99.90;;;;;;5100433;27;20050;-83
2022/01/15 02:55:32;;;;;;;6.60;3.83;;;6.50;99.90;;;;;;5116801;27;20050;-83
2022/01/15 02:57:58;;;;;;;7.88;3.90;;;6.60;99.90;;;;;;5134329;27;20054;-84
2022/01/15 03:00:25;;;;;;;9.00;4.28;;;6.50;99.90;;;;;;5099761;27;20057;-83
2022/01/15 03:02:50;;;;;;;7.50;3.70;;;6.80;99.90;;;;;;5100107;27;20054;-83
2022/01/15 03:05:16;;;;;;;6.85;3.35;;;6.50;99.90;;;;;;5152153;27;20053;-84
2022/01/15 03:07:42;;;;;;;4.53;2.70;;;6.50;99.90;;;;;;5134106;27;20125;-83
2022/01/15 03:10:11;;;;;;;5.00;2.78;;;6.50;99.90;;;;;;5134148;27;20046;-83
2022/01/15 03:12:36;;;;;;;5.88;2.90;;;6.50;99.90;;;;;;5117257;27;20047;-83
2022/01/15 03:15:05;;;;;;;5.43;2.60;;;6.50;99.90;;;;;;5116496;27;20065;-83
2022/01/15 03:17:31;;;;;;;2.00;1.48;;;6.50;99.90;;;;;;5116684;27;20112;-83
2022/01/15 03:19:57;;;;;;;3.28;2.00;;;6.50;99.90;;;;;;5134048;27;20042;-83
2022/01/15 03:22:22;;;;;;;3.78;2.00;;;6.50;99.90;;;;;;5116367;27;20510;-83
2022/01/15 03:24:49;;;;;;;6.47;2.15;;;6.50;99.90;;;;;;5116277;27;20094;-84
2022/01/15 03:27:15;;;;;;;4.38;2.17;;;6.50;99.90;;;;;;5116363;27;20087;-84
2022/01/15 03:29:41;;;;;;;4.07;2.08;;;6.50;99.90;;;;;;5116502;27;20168;-83
2022/01/15 03:32:07;;;;;;;4.82;2.40;;;6.40;99.90;;;;;;5099709;27;20121;-83
2022/01/15 03:34:32;;;;;;;5.95;2.50;;;6.40;99.90;;;;;;5099274;27;20487;-84
2022/01/15 03:36:58;;;;;;;4.03;2.28;;;6.40;99.90;;;;;;5116683;27;20061;-83
2022/01/15 03:39:23;;;;;;;3.78;2.33;;;6.40;99.90;;;;;;5133375;27;20470;-83
2022/01/15 03:41:49;;;;;;;5.43;2.40;;;6.40;99.90;;;;;;5133619;27;20043;-83
2022/01/15 03:44:15;;;;;;;5.88;2.35;;;6.40;99.90;;;;;;5133547;27;20043;-83
2022/01/15 03:46:40;;;;;;;3.63;2.38;;;6.40;99.90;;;;;;5137308;27;20120;-83
2022/01/15 03:49:06;;;;;;;4.03;2.30;;;6.40;99.90;;;;;;5120679;27;20058;-83
2022/01/15 03:51:32;;;;;;;3.83;2.20;;;6.40;99.90;;;;;;5137247;27;20035;-82
2022/01/15 03:53:57;;;;;;;5.47;3.30;;;6.40;99.90;;;;;;5137849;27;20464;-83
2022/01/15 03:56:23;;;;;;;10.05;3.95;;;6.40;99.90;;;;;;5137755;27;20090;-81
2022/01/15 03:58:49;;;;;;;8.93;4.72;;;6.70;99.90;;;;;;5137723;27;20054;-83
2022/01/15 04:01:14;;;;;;;10.57;5.10;;;6.40;99.90;;;;;;5103543;27;20057;-83
2022/01/15 04:03:40;;;;;;;11.82;5.47;;;6.40;99.90;;;;;;5119879;27;20117;-82
2022/01/15 04:06:06;;;;;;;11.88;5.35;;;6.40;99.90;;;;;;5120426;27;20506;-82
2022/01/15 04:08:32;;;;;;;10.93;5.25;;;6.40;99.90;;;;;;5102862;27;20058;-83
2022/01/15 04:10:57;;;;;;;16.58;6.38;;;6.40;99.90;;;;;;5137408;27;20046;-83
2022/01/15 04:13:23;;;;;;;16.38;6.50;;;6.40;99.90;;;;;;5154573;27;20092;-83
2022/01/15 04:15:52;;;;;;;17.48;6.53;;;6.30;99.90;;;;;;5137417;27;20047;-83
2022/01/15 04:18:18;;;;;;;15.45;7.40;;;6.40;99.90;;;;;;5137008;27;20398;-83
2022/01/15 04:20:44;;;;;;;19.60;8.00;;;6.40;99.90;;;;;;5155178;27;20069;-83
2022/01/15 04:23:10;;;;;;;21.42;8.73;;;6.70;99.90;;;;;;5119870;27;20042;-83
2022/01/15 04:25:35;;;;;;;21.38;9.18;;;6.40;99.90;;;;;;5133082;27;20058;-83
2022/01/15 04:28:07;;;;;;;21.20;8.45;;;6.40;99.90;;;;;;5134783;27;20062;-83
2022/01/15 04:30:32;;;;;;;20.38;9.30;;;6.40;99.90;;;;;;5133375;27;20062;-83
2022/01/15 04:32:58;;;;;;;26.90;9.20;;;6.40;99.90;;;;;;5133625;27;20039;-83
2022/01/15 04:35:24;;;;;;;21.05;8.70;;;6.40;99.90;;;;;;5133429;27;20050;-85
2022/01/15 04:37:53;;;;;;;23.75;9.10;;;6.30;99.90;;;;;;5133637;27;20058;-84
2022/01/15 04:40:19;;;;;;;19.48;8.55;;;6.40;99.90;;;;;;5133422;27;20043;-83
2022/01/15 04:42:45;;;;;;;20.15;8.30;;;6.40;99.90;;;;;;5115876;27;20134;-82
2022/01/15 04:45:11;;;;;;;24.00;9.27;;;6.50;99.90;;;;;;5099089;27;20058;-82
2022/01/15 04:47:37;;;;;;;27.40;9.07;;;6.50;99.90;;;;;;5115896;27;20088;-83
2022/01/15 04:50:04;;;;;;;25.98;9.10;;;6.40;99.90;;;;;;5133292;27;20383;-82
2022/01/15 04:52:30;;;;;;;21.95;8.18;;;6.30;99.90;;;;;;5132959;27;20356;-83
2022/01/15 04:54:56;;;;;;;18.65;8.27;;;6.30;99.90;;;;;;5099434;27;20051;-84
2022/01/15 04:57:22;;;;;;;21.35;8.60;;;6.30;99.90;;;;;;5115286;27;20043;-81
2022/01/15 04:59:47;;;;;;;27.67;8.63;;;6.40;99.90;;;;;;5132704;27;20054;-84
2022/01/15 05:02:13;;;;;;;16.80;7.97;;;6.30;99.90;;;;;;5099071;27;20479;-84
2022/01/15 05:04:39;;;;;;;18.17;7.63;;;6.30;99.90;;;;;;5115426;27;20046;-84
2022/01/15 05:07:04;;;;;;;17.15;7.65;;;6.30;99.90;;;;;;5134048;27;20082;-84
2022/01/15 05:09:30;;;;;;;15.05;6.90;;;6.40;99.90;;;;;;5115305;27;20055;-84
2022/01/15 05:12:03;;;;;;;14.27;6.25;;;6.30;99.90;;;;;;5132750;27;20107;-83
2022/01/15 05:14:29;;;;;;;15.85;6.07;;;6.40;99.90;;;;;;5132885;27;20097;-85
2022/01/15 05:16:54;;;;;;;9.95;5.05;;;6.30;99.90;;;;;;5115670;27;20082;-82
2022/01/15 05:19:20;;;;;;;11.38;5.13;;;6.30;99.90;;;;;;5132718;27;20553;-83
2022/01/15 05:21:46;;;;;;;11.00;5.25;;;6.20;99.90;;;;;;5132251;27;20055;-83
2022/01/15 05:24:11;;;;;;;8.38;5.18;;;6.30;99.90;;;;;;5132171;27;20063;-83
2022/01/15 05:26:37;;;;;;;11.13;4.80;;;6.70;99.90;;;;;;5132131;27;20089;-83
2022/01/15 05:29:03;;;;;;;7.85;4.00;;;6.20;99.90;;;;;;5132587;27;20505;-83
2022/01/15 05:31:28;;;;;;;8.07;4.15;;;6.30;99.90;;;;;;5098401;27;20100;-83
2022/01/15 05:33:54;;;;;;;5.13;3.65;;;6.20;99.90;;;;;;5131928;27;20059;-83
2022/01/15 05:36:20;;;;;;;8.43;4.43;;;6.20;99.90;;;;;;5115401;27;20051;-82
2022/01/15 05:38:45;;;;;;;7.55;4.07;;;6.90;99.90;;;;;;5131844;27;20062;-83
2022/01/15 05:41:11;;;;;;;6.85;3.95;;;6.20;99.90;;;;;;5115252;27;20062;-82
2022/01/15 05:43:37;;;;;;;7.80;4.00;;;6.20;99.90;;;;;;5114508;27;20047;-82
2022/01/15 05:46:02;;;;;;;8.35;4.38;;;6.20;99.90;;;;;;5132127;27;20157;-83
2022/01/15 05:48:28;;;;;;;9.18;4.55;;;6.20;99.90;;;;;;5097902;27;20047;-84
2022/01/15 05:50:54;;;;;;;8.00;4.75;;;6.20;99.90;;;;;;5131559;27;20043;-83
2022/01/15 05:53:20;;;;;;;8.88;4.78;;;6.50;99.90;;;;;;5131646;27;20546;-83
2022/01/15 05:55:45;;;;;;;7.07;4.30;;;6.20;99.90;;;;;;5114708;27;20039;-84
2022/01/15 05:58:11;;;;;;;8.82;4.40;;;6.30;99.90;;;;;;5114746;27;20490;-83
2022/01/15 06:00:37;;;;;;;7.95;4.38;;;6.10;99.90;;;;;;5114315;27;20051;-83
2022/01/15 06:03:02;;;;;;;7.93;4.20;;;6.10;99.90;;;;;;5131687;27;20547;-83
2022/01/15 06:05:28;;;;;;;6.22;4.03;;;6.70;99.90;;;;;;5131786;27;20035;-84
2022/01/15 06:07:55;;;;;;;6.88;4.30;;;6.30;99.90;;;;;;5113303;27;20043;-83
2022/01/15 06:10:20;;;;;;;4.75;3.47;;;6.10;99.90;;;;;;5131558;27;20100;-84
2022/01/15 06:12:46;;;;;;;6.28;3.88;;;6.10;99.90;;;;;;5131151;27;20047;-83
2022/01/15 06:15:12;;;;;;;7.55;3.58;;;6.10;99.90;;;;;;5131666;27;20096;-83
2022/01/15 06:17:38;;;;;;;5.75;3.50;;;6.20;99.90;;;;;;5132499;27;20054;-86
2022/01/15 06:20:04;;;;;;;6.95;3.60;;;6.10;99.90;;;;;;5131511;27;20394;-84
2022/01/15 06:22:30;;;;;;;5.95;3.60;;;6.00;99.90;;;;;;5131277;27;20410;-83
2022/01/15 06:24:55;;;;;;;5.45;3.45;;;6.70;99.90;;;;;;5130605;27;20062;-84
2022/01/15 06:27:21;;;;;;;5.30;3.25;;;6.00;99.90;;;;;;5131429;27;20039;-84
2022/01/15 06:29:47;;;;;;;8.05;4.28;;;6.20;99.90;;;;;;5113557;27;20384;-84
2022/01/15 06:32:12;;;;;;;6.50;3.60;;;6.00;99.90;;;;;;5130863;27;20051;-84
2022/01/15 06:34:38;;;;;;;5.28;3.53;;;6.00;99.90;;;;;;5131214;27;20043;-84
2022/01/15 06:37:05;;;;;;;6.78;3.75;;;6.00;99.90;;;;;;5130735;27;20503;-84
2022/01/15 06:39:32;;;;;;;6.93;4.72;;;6.00;99.90;;;;;;5097146;27;20050;-84
2022/01/15 06:41:57;;;;;;;8.25;4.55;;;6.00;99.90;;;;;;5130532;27;20179;-84
2022/01/15 06:44:23;;;;;;;6.65;3.65;;;6.00;99.90;;;;;;5096984;27;20142;-84
2022/01/15 06:46:49;;;;;;;7.32;4.15;;;6.00;99.90;;;;;;5130676;27;20051;-84
2022/01/15 06:49:14;;;;;;;10.77;4.82;;;6.00;99.90;;;;;;5130998;27;20043;-84
2022/01/15 06:51:40;;;;;;;7.38;3.97;;;6.00;99.90;;;;;;5130668;27;20047;-83
2022/01/15 06:54:05;;;;;;;6.90;4.15;;;6.00;99.90;;;;;;5131620;27;20053;-82
2022/01/15 06:56:31;;;;;;;9.85;4.30;;;6.00;99.90;;;;;;5130867;27;20051;-82
2022/01/15 06:58:57;;;;;;;7.22;4.07;;;6.00;99.90;;;;;;5130473;27;20035;-83
2022/01/15 07:01:23;;;;;;;7.22;4.50;;;6.00;99.90;;;;;;5130903;27;20054;-84
2022/01/15 07:03:49;;;;;;;10.27;4.70;;;6.50;99.90;;;;;;5131377;27;20103;-83
2022/01/15 07:06:14;;;;;;;8.40;4.40;;;5.90;99.90;;;;;;5113496;27;20380;-83
2022/01/15 07:08:40;;;;;;;9.55;4.60;;;5.90;99.90;;;;;;5113730;27;20475;-84
2022/01/15 07:11:06;;;;;;;9.10;5.05;;;5.90;99.90;;;;;;5096222;28;20097;-82
2022/01/15 07:13:33;;;;;;;8.95;5.10;;;5.90;99.90;;;;;;5130415;27;20081;-83
2022/01/15 07:15:59;;;;;;;11.60;4.97;;;5.90;99.90;;;;;;5113193;28;20055;-83
2022/01/15 07:18:25;;;;;;;12.77;5.60;;;6.20;99.90;;;;;;5113529;27;20043;-83
2022/01/15 07:20:53;;;;;;;13.07;5.72;;;6.30;99.90;;;;;;5130294;28;20372;-84
2022/01/15 07:23:19;;;;;;;13.07;6.28;;;5.90;99.90;;;;;;5130133;27;20039;-83
2022/01/15 07:25:44;;;;;;;10.35;5.40;;;5.90;99.90;;;;;;5113039;28;20105;-83
2022/01/15 07:28:10;;;;;;;11.88;6.30;;;6.20;99.90;;;;;;5112857;28;20066;-83
2022/01/15 07:30:36;;;;;;;10.55;6.00;;;6.30;99.90;;;;;;5130423;28;20043;-83
2022/01/15 07:33:02;;;;;;;12.98;7.35;;;5.90;99.90;;;;;;5112781;28;20560;-82
2022/01/15 07:35:27;;;;;;;12.68;6.15;;;6.00;99.90;;;;;;5113479;28;20058;-83
2022/01/15 07:37:53;;;;;;;10.80;5.80;;;6.00;99.90;;;;;;5129882;28;20481;-84
2022/01/15 07:40:19;;;;;;;10.52;4.72;;;5.90;99.90;;;;;;5130314;28;20070;-84
2022/01/15 07:42:44;;;;;;;7.93;4.63;;;6.00;99.90;;;;;;5130137;28;20484;-83
2022/01/15 07:45:14;;;;;;;8.35;4.20;;;6.00;99.90;;;;;;5129490;28;20482;-83
2022/01/15 07:47:40;;;;;;;7.05;4.10;;;5.90;99.90;;;;;;5096726;28;20130;-82
2022/01/15 07:50:09;;;;;;;7.07;4.45;;;6.00;99.90;;;;;;5112099;28;20530;-83
2022/01/15 07:52:35;;;;;;;10.48;5.13;;;6.00;99.90;;;;;;5113151;28;20570;-84
2022/01/15 07:55:01;;;;;;;3.95;2.78;;;6.00;99.90;;;;;;5129822;28;20138;-84
2022/01/15 07:57:27;;;;;;;5.13;2.70;;;6.00;99.90;;;;;;5130174;28;20100;-83
2022/01/15 07:59:53;;;;;;;5.30;3.05;;;6.00;99.90;;;;;;5112770;28;20389;-84
2022/01/15 08:02:18;;;;;;;7.60;3.83;;;6.00;99.90;;;;;;5130136;28;20547;-84
2022/01/15 08:04:44;;;;;;;7.35;4.32;;;6.00;99.90;;;;;;5112882;28;20399;-84
2022/01/15 08:07:10;;;;;;;7.25;4.20;;;6.60;99.90;;;;;;5129648;28;20050;-84
2022/01/15 08:09:36;;;;;;;7.22;4.32;;;6.00;99.90;;;;;;5113001;28;20154;-84
2022/01/15 08:12:02;;;;;;;8.95;5.15;;;6.00;99.90;;;;;;5112671;28;20059;-84
2022/01/15 08:14:28;;;;;;;10.45;5.57;;;5.90;99.90;;;;;;5112868;28;20043;-83
2022/01/15 08:16:54;;;;;;;9.23;4.95;;;6.20;99.90;;;;;;5095880;28;20047;-85
2022/01/15 08:19:20;;;;;;;8.52;4.85;;;5.90;99.90;;;;;;5095781;28;20050;-81
2022/01/15 08:21:45;;;;;;;11.02;5.07;;;5.90;99.90;;;;;;5129987;28;20093;-82
2022/01/15 08:24:11;;;;;;;10.80;5.97;;;5.90;99.90;;;;;;5129016;28;20456;-82
2022/01/15 08:26:37;;;;;;;12.60;6.70;;;6.30;99.90;;;;;;5129947;28;20096;-82
2022/01/15 08:29:03;;;;;;;10.70;6.03;;;5.90;99.90;;;;;;5129437;28;20040;-82
2022/01/15 08:31:28;;;;;;;11.88;7.00;;;5.90;99.90;;;;;;5114558;27;20501;-82
2022/01/15 08:33:54;;;;;;;13.68;7.75;;;6.00;99.90;;;;;;5133267;27;20047;-81
2022/01/15 08:36:20;;;;;;;14.38;7.55;;;6.00;99.90;;;;;;5115853;27;20127;-84
2022/01/15 08:38:46;;;;;;;13.07;7.28;;;6.20;99.90;;;;;;5133607;27;20394;-84
2022/01/15 08:41:13;;;;;;;12.35;7.07;;;6.00;99.90;;;;;;5132968;27;20047;-83
2022/01/15 08:43:41;;;;;;;11.90;7.25;;;6.10;99.90;;;;;;5115908;27;20455;-83
2022/01/15 08:46:07;;;;;;;13.23;7.07;;;6.00;99.90;;;;;;5115546;27;20051;-83
2022/01/15 08:48:33;;;;;;;13.50;7.20;;;6.10;99.90;;;;;;5115834;27;20035;-83
2022/01/15 08:50:58;;;;;;;12.52;7.40;;;6.00;99.90;;;;;;5132553;27;20567;-86
2022/01/15 08:53:24;;;;;;;14.77;8.25;;;6.10;99.90;;;;;;5132723;27;20119;-83
2022/01/15 08:55:50;;;;;;;13.15;7.47;;;6.00;99.90;;;;;;5132860;27;20088;-83
2022/01/15 08:58:15;;;;;;;16.73;8.38;;;6.50;99.90;;;;;;5132563;27;20528;-83
2022/01/15 09:00:41;;;;;;;12.88;7.68;;;6.50;99.90;;;;;;5099076;27;20043;-83
2022/01/15 09:03:07;;;;;;;16.63;9.55;;;6.80;99.90;;;;;;5115533;27;20047;-83
2022/01/15 09:05:34;;;;;;;14.00;8.57;;;6.10;99.90;;;;;;5133283;27;20076;-83
2022/01/15 09:08:01;;;;;;;18.48;8.63;;;6.70;99.90;;;;;;5098932;27;20049;-82
2022/01/15 09:10:26;;;;;;;17.38;9.63;;;6.10;99.90;;;;;;5115894;27;20078;-84
2022/01/15 09:12:52;;;;;;;19.42;10.20;;;6.20;99.90;;;;;;5132619;27;20078;-83
2022/01/15 09:15:18;;;;;;;21.88;11.20;;;6.10;99.90;;;;;;5133326;27;20478;-82
2022/01/15 09:17:44;;;;;;;22.33;12.07;;;6.10;99.90;;;;;;5115233;27;20780;-83
2022/01/15 09:20:10;;;;;;;24.65;12.27;;;6.10;99.90;;;;;;5114439;27;20233;-83
2022/01/15 09:22:36;;;;;;;24.35;12.52;;;6.20;99.90;;;;;;5098062;27;20075;-82
2022/01/15 09:25:03;;;;;;;23.77;12.07;;;6.20;99.90;;;;;;5097531;27;20055;-83
2022/01/15 09:30:13;;;;;;;21.75;11.32;;;6.20;99.90;;;;;;5117261;27;20055;-82
2022/01/15 09:32:44;;;;;;;17.23;10.25;;;7.20;99.90;;;;;;5132205;27;20095;-82
2022/01/15 09:35:10;;;;;;;17.45;8.98;;;6.30;99.90;;;;;;5097685;27;20483;-89
2022/01/15 09:37:36;;;;;;;16.02;9.27;;;6.30;99.90;;;;;;5115438;27;20043;-86
2022/01/15 09:40:02;;;;;;;17.13;9.73;;;6.30;99.90;;;;;;5114927;27;20047;-85
2022/01/15 09:42:30;;;;;;;17.48;9.55;;;6.50;99.90;;;;;;5132006;27;20130;-84
2022/01/15 09:44:56;;;;;;;21.08;10.80;;;6.20;99.90;;;;;;5097570;27;20061;-85
2022/01/15 09:47:22;;;;;;;18.95;9.63;;;6.20;99.90;;;;;;5093486;28;20122;-85
2022/01/15 09:49:48;;;;;;;15.82;9.43;;;6.10;99.90;;;;;;5111381;28;20047;-86
2022/01/15 09:52:13;;;;;;;17.13;8.98;;;6.10;99.90;;;;;;5093775;28;20058;-85
2022/01/15 09:54:40;;;;;;;16.60;9.02;;;6.50;99.90;;;;;;5094533;28;20052;-84
2022/01/15 09:57:05;;;;;;;18.75;9.82;;;6.10;99.90;;;;;;5111205;28;20052;-84
2022/01/15 09:59:31;;;;;;;22.08;11.02;;;6.10;99.90;;;;;;5077047;28;20055;-84
2022/01/15 10:02:02;;;;;;;21.42;11.00;;;6.20;99.90;;;;;;5111029;28;20514;-84
2022/01/15 10:04:31;;;;;;;21.35;10.60;;;6.20;99.90;;;;;;5110154;28;20052;-84
2022/01/15 10:07:15;;;;;;;22.92;11.82;;;6.10;99.90;;;;;;5077951;28;20576;-85
2022/01/15 10:09:42;;;;;;;21.50;10.95;;;6.20;99.90;;;;;;5111010;28;20100;-83
2022/01/15 10:12:08;;;;;;;20.98;11.35;;;6.10;99.90;;;;;;5110676;28;20048;-82
2022/01/15 10:14:38;;;;;;;21.20;11.75;;;6.20;99.90;;;;;;5093938;28;20052;-88
2022/01/15 10:17:32;;;;;;;19.60;11.30;;;6.10;99.90;;;;;;5128282;27;20096;-85
2022/01/15 10:19:58;;;;;;;;;;;6.10;99.90;;;;;;5095692;28;20399;-85
2022/01/15 10:43:35;;;;;;;18.15;11.68;;;6.10;99.90;;;;;;5024173;28;20326;-84
2022/01/15 10:46:03;;;;;;;14.57;10.63;;;6.10;99.90;;;;;;5004231;28;20141;-82
2022/01/15 10:48:34;;;;;;;16.27;11.05;;;6.10;99.90;;;;;;4987137;28;20054;-82
2022/01/15 10:51:01;;;;;;;15.50;11.27;;;6.20;99.90;;;;;;4971071;28;20090;-81
2022/01/15 10:53:44;;;;;;;16.90;11.80;;;6.10;99.90;;;;;;4971004;28;20510;-83
2022/01/15 10:56:11;;;;;;;18.67;12.25;;;6.10;99.90;;;;;;4987480;28;20129;-82
2022/01/15 10:58:37;;;;;;;18.25;12.70;;;6.80;99.90;;;;;;5004850;28;20124;-84
2022/01/15 11:01:03;;;;;;;19.67;14.23;;;6.20;99.90;;;;;;4986757;28;20056;-80
2022/01/15 11:03:55;;;;;;;20.15;13.82;;;6.10;99.90;;;;;;4955138;28;20509;-83
2022/01/15 11:06:37;;;;;;;18.92;12.65;;;6.10;99.90;;;;;;5003841;28;20054;-82
2022/01/15 11:09:02;;;;;;;20.85;13.68;;;6.20;99.90;;;;;;4986470;28;20452;-83
2022/01/15 11:11:32;;;;;;;21.95;13.57;;;6.10;99.90;;;;;;4970673;28;20073;-83
2022/01/15 11:13:58;;;;;;;20.98;13.65;;;6.00;99.90;;;;;;4987017;28;20093;-82
2022/01/15 11:16:23;;;;;;;21.10;14.15;;;6.30;99.90;;;;;;5004003;28;20519;-83
2022/01/15 11:18:50;;;;;;;21.33;13.95;;;6.10;99.90;;;;;;5003780;28;20061;-83
2022/01/15 11:21:18;;;;;;;21.25;13.98;;;6.10;99.90;;;;;;4986475;28;20544;-84
2022/01/15 11:23:44;;;;;;;21.75;14.35;;;6.10;99.90;;;;;;5004161;28;20038;-83
2022/01/15 11:26:12;;;;;;;24.52;15.75;;;6.10;99.90;;;;;;4986225;28;20054;-83
2022/01/15 11:28:37;;;;;;;23.27;15.40;;;6.10;99.90;;;;;;4970474;28;20057;-84
2022/01/15 11:31:11;;;;;;;25.05;16.85;;;6.20;99.90;;;;;;4985837;28;20050;-84
2022/01/15 11:33:45;;;;;;;24.03;15.67;;;6.10;99.90;;;;;;4970722;28;20057;-83
2022/01/15 11:36:28;;;;;;;24.98;14.82;;;6.10;99.90;;;;;;4970652;28;20322;-85
2022/01/15 11:38:53;;;;;;;26.55;16.08;;;6.60;99.90;;;;;;4985930;28;20050;-84
2022/01/15 11:41:22;;;;;;;26.25;14.88;;;6.20;99.90;;;;;;4985927;28;20054;-84
2022/01/15 11:43:50;;;;;;;21.77;14.13;;;6.10;99.90;;;;;;4977576;28;20066;-83
2022/01/15 11:46:31;;;;;;;29.35;16.40;;;6.10;99.90;;;;;;4972831;28;20090;-86
2022/01/15 11:49:23;;;;;;;26.48;15.15;;;6.10;99.90;;;;;;4972696;28;20403;-85
2022/01/15 11:51:49;;;;;;;29.50;17.55;;;6.10;99.90;;;;;;4989532;28;20067;-85
2022/01/15 11:54:15;;;;;;;28.08;16.73;;;6.00;99.90;;;;;;4972216;28;20184;-85
2022/01/15 11:56:42;;;;;;;30.30;17.70;;;6.00;99.90;;;;;;4972628;28;20056;-86
2022/01/15 11:59:26;;;;;;;29.17;17.17;;;6.50;99.90;;;;;;4956132;28;20050;-86
2022/01/15 12:01:55;;;;;;;33.55;19.17;;;6.80;99.90;;;;;;4957063;28;20057;-85
2022/01/15 12:04:29;;;;;;;32.38;18.85;;;6.00;99.90;;;;;;4972629;28;20047;-85
2022/01/15 12:07:01;;;;;;;30.20;17.48;;;6.00;99.90;;;;;;4990139;28;20058;-88
2022/01/15 12:09:46;;;;;;;31.27;17.05;;;6.20;99.90;;;;;;4973013;28;20054;-84
2022/01/15 12:12:18;;;;;;;32.85;18.48;;;6.10;99.90;;;;;;4972175;28;20053;-84
2022/01/15 12:14:52;;;;;;;29.30;17.77;;;6.00;99.90;;;;;;4988713;28;20042;-85
2022/01/15 12:17:28;;;;;;;31.87;18.80;;;6.10;99.90;;;;;;4953160;28;20086;-85
2022/01/15 12:19:54;;;;;;;31.20;18.00;;;6.00;99.90;;;;;;4953600;28;20386;-85
2022/01/15 12:22:46;;;;;;;30.77;17.75;;;6.00;99.90;;;;;;4936871;28;20125;-86
2022/01/15 12:25:17;;;;;;;36.55;18.80;;;6.00;99.90;;;;;;4953277;28;20050;-86
2022/01/15 12:28:03;;;;;;;30.90;17.58;;;6.10;99.90;;;;;;4970569;28;20092;-82
2022/01/15 12:30:50;;;;;;;33.10;18.42;;;5.90;99.90;;;;;;4953381;28;20051;-83
2022/01/15 12:33:16;;;;;;;33.65;19.08;;;5.90;99.90;;;;;;4969743;28;20043;-83
2022/01/15 12:35:44;;;;;;;29.63;18.83;;;5.90;99.90;;;;;;4970122;28;20046;-85
2022/01/15 12:38:11;;;;;;;32.65;19.10;;;5.90;99.90;;;;;;4952537;28;20559;-85
2022/01/15 12:40:58;;;;;;;29.55;18.20;;;5.90;99.90;;;;;;4953025;28;20057;-84
2022/01/15 12:43:43;;;;;;;28.92;17.33;;;6.50;99.90;;;;;;4952336;28;20062;-83
2022/01/15 12:46:12;;;;;;;;;;;5.90;99.90;;;;;;4970114;28;20131;-83
2022/01/15 12:48:40;;;;;;;30.92;17.73;;;5.90;99.90;;;;;;4970130;28;20363;-84
2022/01/15 12:51:10;;;;;;;30.85;18.27;;;5.80;99.90;;;;;;4952691;28;20055;-86
2022/01/15 12:53:40;;;;;;;31.73;18.67;;;6.00;99.90;;;;;;4952873;28;20407;-85
2022/01/15 12:56:06;;;;;;;34.90;20.25;;;5.80;99.90;;;;;;4951630;28;20051;-86
2022/01/15 12:58:32;;;;;;;32.30;19.08;;;5.80;99.90;;;;;;4920836;28;20076;-85
2022/01/15 13:01:01;;;;;;;34.42;19.25;;;5.80;99.90;;;;;;4952798;28;20050;-86
2022/01/15 13:03:27;;;;;;;36.20;20.58;;;5.80;99.90;;;;;;4952608;28;20047;-84
2022/01/15 13:06:00;;;;;;;37.17;21.20;;;5.70;99.90;;;;;;4952254;28;20510;-83
2022/01/15 13:08:32;;;;;;;32.33;19.87;;;5.70;99.90;;;;;;4969048;28;20538;-82
2022/01/15 13:14:02;;;;;;;38.60;23.10;;;6.10;99.90;;;;;;4977460;28;20477;-83
2022/01/15 13:16:30;;;;;;;36.60;20.60;;;5.70;99.90;;;;;;4951934;28;20055;-84
2022/01/15 13:18:58;;;;;;;34.95;20.40;;;5.90;99.90;;;;;;4936781;28;20077;-84
2022/01/15 13:21:28;;;;;;;37.03;21.02;;;5.70;99.90;;;;;;4952172;28;20051;-83
2022/01/15 13:23:56;;;;;;;35.05;20.50;;;5.80;99.90;;;;;;4952981;28;20138;-86
2022/01/15 13:26:33;;;;;;;36.30;21.30;;;5.80;99.90;;;;;;4951851;28;20061;-83
2022/01/15 13:29:06;;;;;;;30.23;19.40;;;5.80;99.90;;;;;;4952189;28;20085;-84
2022/01/15 13:31:34;;;;;;;29.40;18.85;;;5.70;99.90;;;;;;4937093;28;20054;-83